EST,Max TemperatureF,Mean TemperatureF,Min TemperatureF,Max Dew PointF,MeanDew PointF,Min DewpointF,Max Humidity, Mean Humidity, Min Humidity, Max Sea Level PressureIn, Mean Sea Level PressureIn, Min Sea Level PressureIn, Max VisibilityMiles, Mean VisibilityMiles, Min VisibilityMiles, Max Wind SpeedMPH, Mean Wind SpeedMPH, Max Gust SpeedMPH,PrecipitationIn, CloudCover, Events, WindDirDegrees
2012-12-1,26,24,23,25,16,5,93,71,43,30.61,30.55,30.48,10,7,2,10,6,,0.00,8,,78
2012-12-2,44,35,26,43,32,25,93,90,86,30.47,30.20,29.95,7,2,0,12,1,,0.08,8,,252
2012-12-3,50,39,28,43,35,25,93,76,57,30.29,30.11,29.94,10,10,2,16,9,24,0.05,4,,259
2012-12-4,39,34,28,37,33,25,93,90,86,30.29,30.16,29.90,7,1,0,5,0,,0.00,8,,240
2012-12-5,51,40,30,48,30,12,100,67,47,30.08,29.92,29.76,10,8,0,21,6,32,0.00,7,,281
2012-12-6,37,29,21,18,15,12,86,56,38,30.27,30.21,30.09,10,10,10,16,8,23,0.00,1,,272
2012-12-7,35,28,21,30,24,18,87,79,56,30.23,30.12,30.00,10,8,1,12,1,18,0.01,4,,224
2012-12-8,37,34,32,36,32,28,93,88,81,30.00,29.91,29.84,10,4,0,10,4,,0.02,8,,61
2012-12-9,42,35,28,36,28,21,93,71,42,30.27,30.15,29.90,10,10,9,12,6,,0.00,2,,258
2012-12-10,42,37,32,39,32,28,93,89,81,30.14,29.73,29.47,10,4,0,14,7,,0.14,8,,50
2012-12-11,42,36,30,39,27,18,87,68,56,30.09,29.81,29.52,10,10,10,13,7,21,0.00,6,,270
2012-12-12,39,32,24,21,19,16,86,64,39,30.37,30.27,30.12,10,10,10,10,5,,0.00,1,,258
2012-12-13,39,30,21,27,21,18,93,74,48,30.41,30.34,30.22,10,10,2,8,2,,0.00,1,,238
2012-12-14,42,33,24,25,23,19,86,64,39,30.21,30.10,30.01,10,10,10,14,5,21,0.00,3,,251
2012-12-15,37,29,21,23,11,0,64,46,20,30.31,30.24,30.13,10,10,10,14,6,20,0.00,1,,303
2012-12-16,23,22,21,18,11,1,86,66,42,30.31,30.22,30.12,10,7,1,15,10,,0.00,8,,69
2012-12-17,32,26,21,28,23,18,93,85,80,30.12,30.00,29.88,8,3,0,14,9,20,0.05,8,,63
2012-12-18,39,36,32,36,33,28,93,89,81,29.85,29.53,29.41,10,4,1,21,5,25,0.29,8,,51
2012-12-19,41,38,35,36,29,27,93,73,61,30.00,29.69,29.42,10,9,1,17,6,25,0.00,6,,290
2012-12-20,37,32,26,28,26,23,93,73,60,30.18,30.09,30.01,10,10,10,8,4,16,0.00,6,,151
2012-12-21,51,42,32,46,35,28,93,81,70,29.97,29.37,29.02,10,6,1,28,13,39,0.56,8,,105
2012-12-22,37,30,24,28,21,9,75,63,48,29.55,29.28,29.12,10,10,10,17,11,30,0.00,8,,240
2012-12-23,35,28,21,21,14,9,64,55,41,29.75,29.69,29.56,10,10,10,18,10,28,0.00,2,,254
2012-12-24,33,28,23,23,15,10,80,58,38,30.01,29.94,29.75,10,10,10,14,7,21,0.00,2,,274
2012-12-25,32,26,19,23,17,9,80,71,54,30.18,30.04,29.97,10,8,1,8,3,,0.00,4,,262
2012-12-26,30,21,12,18,13,7,85,63,47,30.27,30.19,30.00,10,10,1,22,5,29,0.00,2,,78
2012-12-27,32,28,24,27,23,19,86,81,69,29.97,29.59,29.40,10,4,0,26,15,41,0.01,8,,38
2012-12-28,30,27,24,19,18,16,74,68,60,29.96,29.83,29.60,10,10,0,17,9,24,0.00,3,,267
2012-12-29,26,24,21,23,19,16,86,77,69,29.95,29.78,29.46,10,6,0,13,6,18,0.04,5,,348
2012-12-30,26,20,14,23,11,3,86,66,58,29.89,29.64,29.42,10,9,1,22,9,37,0.00,3,,274
2012-12-31,30,22,15,21,15,3,74,64,58,29.91,29.82,29.65,10,10,10,17,9,29,0.00,6,,242